28. Mai 2022

Uhrzeit Code Wetter Temp. Sichtweite Wolkendecke Wind METAR/SPECI
6:30 am
V
54 °F 6¼ mi+ - 340° 340° 6 kt METAR LFSL 280430Z AUTO 34006KT CAVOK 12/10 Q1019 NOSIG
6:00 am
V
54 °F 6¼ mi+ - 320° 320° 5 kt METAR LFSL 280400Z AUTO 32005KT CAVOK 12/10 Q1019 NOSIG
5:30 am
V
55 °F 6¼ mi+ - 330° 330° 6 kt METAR LFSL 280330Z AUTO 33006KT CAVOK 13/11 Q1019 NOSIG
5:00 am
V
54 °F 6¼ mi+ - 340° 340° 4 kt METAR LFSL 280300Z AUTO 34004KT CAVOK 12/10 Q1019
4:30 am
V
55 °F 6¼ mi+ - 340° 340° 2 kt METAR LFSL 280230Z AUTO 34002KT CAVOK 13/10 Q1020
4:00 am
V
55 °F 6¼ mi+ - 330° 330° 4 kt METAR LFSL 280200Z AUTO 33004KT CAVOK 13/11 Q1020
3:30 am
V
57 °F 6¼ mi+ - 330° 330° 4 kt METAR LFSL 280130Z AUTO 33004KT CAVOK 14/11 Q1020
3:00 am
V
57 °F 6¼ mi+ - 330° 330° 4 kt METAR LFSL 280100Z AUTO 33004KT CAVOK 14/11 Q1021
2:30 am
V
59 °F 6¼ mi+ - 350° 350° 6 kt METAR LFSL 280030Z AUTO 35006KT CAVOK 15/11 Q1021
2:00 am
V
59 °F 6¼ mi+ - 340° 340° 4 kt METAR LFSL 280000Z AUTO 34004KT CAVOK 15/11 Q1021
1:30 am
V
59 °F 6¼ mi+ - Var Var 3 kt METAR LFSL 272330Z AUTO VRB03KT CAVOK 15/11 Q1022
1:00 am
V
61 °F 6¼ mi+ - 340° 340° 5 kt METAR LFSL 272300Z AUTO 34005KT 290V020 CAVOK 16/12 Q1022
12:30 am
V
63 °F 6¼ mi+ - 340° 340° 7 kt METAR LFSL 272230Z AUTO 34007KT CAVOK 17/12 Q1022
12:00 am
V
63 °F 6¼ mi+ - 340° 340° 8 kt METAR LFSL 272200Z AUTO 34008KT CAVOK 17/12 Q1022

27. Mai 2022

Uhrzeit Code Wetter Temp. Sichtweite Wolkendecke Wind METAR/SPECI
11:30 pm
V
64 °F 6¼ mi+ - 330° 330° 8 kt METAR LFSL 272130Z AUTO 33008KT CAVOK 18/12 Q1022
11:00 pm
V
64 °F 6¼ mi+ - 340° 340° 9 kt METAR LFSL 272100Z AUTO 34009KT 310V010 CAVOK 18/12 Q1022
10:30 pm
V
66 °F 6¼ mi+ - 330° 330° 9 kt METAR LFSL 272030Z AUTO 33009KT CAVOK 19/12 Q1022 NOSIG
10:00 pm
V
68 °F 6¼ mi+ - 320° 320° 8 kt METAR LFSL 272000Z AUTO 32008KT CAVOK 20/12 Q1022 NOSIG
9:30 pm
V
70 °F 6¼ mi+ - 330° 330° 10 kt METAR LFSL 271930Z AUTO 33010KT CAVOK 21/12 Q1022 NOSIG
9:00 pm
V
72 °F 6¼ mi+ - 330° 330° 13 kt METAR LFSL 271900Z AUTO 33013KT CAVOK 22/12 Q1022 NOSIG
8:30 pm
V
72 °F 6¼ mi+ - 330° 330° 13 kt METAR LFSL 271830Z AUTO 33013KT CAVOK 22/12 Q1022 NOSIG
8:00 pm
V
73 °F 6¼ mi+ - 330° 330° 12 kt METAR LFSL 271800Z AUTO 33012KT 300V360 CAVOK 23/12 Q1022 NOSIG
7:30 pm
V
75 °F 6¼ mi+ - 320° 320° 13 kt METAR LFSL 271730Z AUTO 32013KT CAVOK 24/12 Q1022 NOSIG
7:00 pm
V
75 °F 6¼ mi+ - 320° 320° 14 kt METAR LFSL 271700Z AUTO 32014KT CAVOK 24/12 Q1022 NOSIG
6:30 pm
V
75 °F 6¼ mi+ - 320° 320° 14 kt METAR LFSL 271630Z AUTO 32014KT CAVOK 24/12 Q1022 NOSIG
6:00 pm
V
75 °F 6¼ mi+ - 310° 310° 15 kt METAR LFSL 271600Z AUTO 31015KT CAVOK 24/12 Q1022 NOSIG
5:30 pm
V
75 °F 6¼ mi+ - 330° 330° 12 kt METAR LFSL 271530Z AUTO 33012KT 300V020 CAVOK 24/12 Q1023 NOSIG
5:00 pm
V
75 °F 6¼ mi+ - 310° 310° 11 kt METAR LFSL 271500Z AUTO 31011KT 250V350 CAVOK 24/12 Q1023 NOSIG
4:30 pm
V
75 °F 6¼ mi+ - 340° 340° 11 kt METAR LFSL 271430Z AUTO 34011KT CAVOK 24/12 Q1023 NOSIG
4:00 pm
V
75 °F 6¼ mi+ - 330° 330° 12 kt METAR LFSL 271400Z AUTO 33012KT 290V010 CAVOK 24/13 Q1023 NOSIG
3:30 pm
V
73 °F 6¼ mi+ - 340° 340° 10 kt METAR LFSL 271330Z AUTO 34010KT 310V010 CAVOK 23/13 Q1024 NOSIG
3:00 pm
V
73 °F 6¼ mi+ - 340° 340° 9 kt METAR LFSL 271300Z AUTO 34009KT 300V020 CAVOK 23/13 Q1024 NOSIG
2:30 pm
V
72 °F 6¼ mi+ - 320° 320° 9 kt METAR LFSL 271230Z AUTO 32009KT 260V020 9999 FEW034 22/12 Q1024 NOSIG
2:00 pm
V
72 °F 6¼ mi+ - 330° 330° 9 kt METAR LFSL 271200Z AUTO 33009KT 290V030 9999 FEW033 22/13 Q1024 NOSIG
1:30 pm
V
72 °F 6¼ mi+ - 330° 330° 11 kt METAR LFSL 271130Z AUTO 33011KT 300V360 9999 FEW031 22/13 Q1025 NOSIG
1:00 pm
V
70 °F 6¼ mi+ - 330° 330° 11 kt METAR LFSL 271100Z AUTO 33011KT 280V360 9999 SCT031 21/13 Q1025 NOSIG
12:30 pm
M
70 °F 6¼ mi+ 2.800 ft 320° 320° 10 kt METAR LFSL 271030Z AUTO 32010KT 280V340 9999 BKN028 21/12 Q1025 NOSIG
12:00 pm
M
68 °F 6¼ mi+ 2.700 ft 340° 340° 10 kt METAR LFSL 271000Z AUTO 34010KT 300V360 9999 BKN027 20/12 Q1025 NOSIG
11:30 am
M
66 °F 6¼ mi+ 2.400 ft 330° 330° 10 kt METAR LFSL 270930Z AUTO 33010KT 300V360 9999 BKN024 19/12 Q1025 NOSIG
11:00 am
V
66 °F 6¼ mi+ - 360° 360° 8 kt METAR LFSL 270900Z AUTO 36008KT 330V030 9999 SCT024 19/12 Q1025 NOSIG
10:30 am
V
66 °F 6¼ mi+ - 320° 320° 11 kt METAR LFSL 270830Z AUTO 32011KT 9999 FEW024 19/12 Q1025 NOSIG
10:00 am
V
64 °F 6¼ mi+ - 330° 330° 10 kt METAR LFSL 270800Z AUTO 33010KT 300V020 CAVOK 18/12 Q1026 NOSIG
9:30 am
V
61 °F 6¼ mi+ - 320° 320° 10 kt METAR LFSL 270730Z AUTO 32010KT 300V360 9999 ////// 16/12 Q1026
Ältere Daten

Laden Sie unsere App herunter

Einfacher Zugriff auf das gesamte Flugwetter auf Ihrem Mobiltelefon und Tablet.
Mit vielen Funktionen, die auf der Website nicht verfügbar sind, wie Offline-Unterstützung und eine persönliche Flughafenliste.

Wir und Dritte verfolgen dein Internetverhalten auf unserer Website mit Cookies. Wenn du fortfährst, gehen wir davon aus, dass du mit unserer Cookie-Richtlinie einverstanden bist. Mehr erfahren